首页
METAR-TAF:

METAR-TAF

机场 :

Laupheim, 德国

纬度: 48-13N, 经度: 009-55E, 海拔: 538米

当前天气观测

该预报发布于48分钟前的10:20 UTC
风速6节,风向北转东北
温度 30°C
湿度 55%
气压 1024 hPa
能见度10公里或以上
少量云层高于4000英尺

METAR: ETHL 271020Z 03006KT 9999 FEW040 30/20 Q1024 BLU+BLU+

时间: 13:08 (11:08 UTC)

预报

该预报发布于53分钟前的10:15 UTC
预报有效从27日的 11点(UTC)到 27日的 20点(UTC)
风速3节,风向多变
能见度10公里或以上
少量云层高于5000英尺

TAF: ETHL 271015Z 2711/2720 VRB03KT 9999 NSW FEW050

超过4000个机场的气象观测和天气预报(METAR&TAF报告)。

可查询的气象台以黄色和红色小点在地图上表示。

将鼠标移到小点上方,可查看气象台名称。

然后点击查看天气观测和预报。

如需切换地图:点击带黑十字的绿色按钮放大地图;点击带横线的绿色按钮缩小地图;或者点击绿色箭头查看邻近地区的地图。


METAR-TAF: